Time;durP1;ratioP1;P1;durP2;ratioP2;P2;SDS_P1;SDS_P2;PMS_P1;PMS_P2;Temp;Humidity;BMP_temperature;BMP_pressure;BME280_temperature;BME280_humidity;BME280_pressure;Samples;Min_cycle;Max_cycle;Signal;HPM_P1;HPM_P2
2023/04/18 00:01:22;;;;;;;;;;;;;;;8.55;100.00;99454.22;5073158;28;869;-61
2023/04/18 00:03:52;;;;;;;;;;;;;;;8.56;100.00;99450.31;5071717;28;1067;-61
2023/04/18 00:06:21;;;;;;;;;;;;;;;8.53;100.00;99451.09;5072990;28;849;-61
2023/04/18 00:08:48;;;;;;;;;;;;;;;8.48;100.00;99448.75;5073176;28;954;-61
2023/04/18 00:11:14;;;;;;;;;;;;;;;8.46;100.00;99450.34;5072769;28;1280;-61
2023/04/18 00:13:41;;;;;;;;;;;;;;;8.47;100.00;99443.63;5072910;28;802;-61
2023/04/18 00:16:08;;;;;;;;;;;;;;;8.49;100.00;99436.56;5072767;28;850;-61
2023/04/18 00:18:36;;;;;;;;;;;;;;;8.51;100.00;99441.66;5072679;28;1914;-61
2023/04/18 00:21:03;;;;;;;;;;;;;;;8.47;100.00;99443.63;5072726;28;845;-61
2023/04/18 00:23:30;;;;;;;;;;;;;;;8.44;100.00;99444.44;5072551;28;854;-61
2023/04/18 00:25:55;;;;;;;;;;;;;;;8.40;100.00;99449.91;5072503;28;857;-61
2023/04/18 00:28:22;;;;;;;;;;;;;;;8.38;100.00;99444.00;5072513;28;910;-61
2023/04/18 00:30:49;;;;;;;;;;;;;;;8.37;100.00;99447.97;5072520;28;834;-61
2023/04/18 00:33:16;;;;;;;;;;;;;;;8.38;100.00;99441.25;5072508;28;875;-61
2023/04/18 00:35:43;;;;;;;;;;;;;;;8.36;100.00;99438.91;5072433;28;849;-61
2023/04/18 00:38:09;;;;;;;;;;;;;;;8.36;100.00;99435.34;5072349;28;850;-61
2023/04/18 00:40:37;;;;;;;;;;;;;;;8.37;100.00;99440.47;5072239;28;1949;-61
2023/04/18 00:43:05;;;;;;;;;;;;;;;8.38;100.00;99433.00;5072256;28;865;-61
2023/04/18 00:45:33;;;;;;;;;;;;;;;8.36;100.00;99436.16;5072161;28;867;-61
2023/04/18 00:48:00;;;;;;;;;;;;;;;8.35;100.00;99431.06;5072213;28;822;-61
2023/04/18 00:50:27;;;;;;;;;;;;;;;8.31;100.00;99424.75;5072099;28;823;-61
2023/04/18 00:52:55;;;;;;;;;;;;;;;8.28;100.00;99426.34;5072090;28;810;-61
2023/04/18 00:55:22;;;;;;;;;;;;;;;8.27;100.00;99419.25;5071917;28;866;-61
2023/04/18 00:57:50;;;;;;;;;;;;;;;8.29;100.00;99419.63;5072086;28;814;-61
2023/04/18 01:00:21;;;;;;;;;;;;;;;8.30;100.00;99406.66;5071887;28;1918;-61
2023/04/18 01:02:51;;;;;;;;;;;;;;;8.31;100.00;99408.25;5071893;28;806;-61
2023/04/18 01:05:20;;;;;;;;;;;;;;;8.29;100.00;99411.38;5071963;28;857;-61
2023/04/18 01:07:46;;;;;;;;;;;;;;;8.29;100.00;99410.59;5071889;28;837;-61
2023/04/18 01:10:13;;;;;;;;;;;;;;;8.29;100.00;99405.09;5071970;28;1304;-61
2023/04/18 01:12:40;;;;;;;;;;;;;;;8.27;100.00;99405.47;5071874;28;849;-61
2023/04/18 01:15:07;;;;;;;;;;;;;;;8.25;100.00;99405.09;5070484;28;1316;-61
2023/04/18 01:17:34;;;;;;;;;;;;;;;8.27;100.00;99401.94;5071770;28;809;-61
2023/04/18 01:20:04;;;;;;;;;;;;;;;8.27;100.00;99397.22;5071726;28;1981;-61
2023/04/18 01:22:31;;;;;;;;;;;;;;;8.30;100.00;99395.63;5071664;28;900;-61
2023/04/18 01:24:58;;;;;;;;;;;;;;;8.32;100.00;99401.53;5071734;28;806;-61
2023/04/18 01:27:25;;;;;;;;;;;;;;;8.32;100.00;99405.09;5071628;28;810;-61
2023/04/18 01:29:52;;;;;;;;;;;;;;;8.27;100.00;99397.22;5071597;28;923;-61
2023/04/18 01:32:20;;;;;;;;;;;;;;;8.25;100.00;99396.84;5071629;28;787;-61
2023/04/18 01:34:46;;;;;;;;;;;;;;;8.21;100.00;99393.28;5071580;28;873;-62
2023/04/18 01:37:13;;;;;;;;;;;;;;;8.24;100.00;99386.25;5071503;28;817;-61
2023/04/18 01:39:40;;;;;;;;;;;;;;;8.24;100.00;99397.25;5071459;28;1917;-61
2023/04/18 01:42:06;;;;;;;;;;;;;;;8.21;100.00;99376.78;5071438;28;814;-61
2023/04/18 01:44:33;;;;;;;;;;;;;;;8.18;100.00;99388.59;5071474;28;783;-61
2023/04/18 01:47:00;;;;;;;;;;;;;;;8.14;100.00;99385.06;5077449;28;1334;-61
2023/04/18 01:49:27;;;;;;;;;;;;;;;8.11;100.00;99381.13;5078032;28;806;-61
2023/04/18 01:51:54;;;;;;;;;;;;;;;8.08;100.00;99372.88;5078110;28;857;-61
2023/04/18 01:54:20;;;;;;;;;;;;;;;8.07;100.00;99385.09;5077972;28;802;-61
2023/04/18 01:56:47;;;;;;;;;;;;;;;8.07;100.00;99380.34;5077992;28;832;-61
2023/04/18 01:59:13;;;;;;;;;;;;;;;8.04;100.00;99383.09;5077983;28;1961;-61
2023/04/18 02:01:41;;;;;;;;;;;;;;;8.05;100.00;99390.19;5077976;28;830;-62
2023/04/18 02:04:08;;;;;;;;;;;;;;;8.04;100.00;99378.38;5078017;28;844;-61
2023/04/18 02:06:34;;;;;;;;;;;;;;;8.01;100.00;99381.16;5077696;28;1334;-62
2023/04/18 02:09:01;;;;;;;;;;;;;;;7.97;100.00;99386.66;5078097;28;986;-61
2023/04/18 02:11:28;;;;;;;;;;;;;;;7.94;100.00;99384.72;5077750;28;1168;-61
2023/04/18 02:13:58;;;;;;;;;;;;;;;7.94;100.00;99384.72;5077865;28;819;-62
2023/04/18 02:16:25;;;;;;;;;;;;;;;7.96;100.00;99380.38;5076550;28;1325;-61
2023/04/18 02:18:52;;;;;;;;;;;;;;;7.97;100.00;99383.91;5077665;28;1975;-61
2023/04/18 02:21:18;;;;;;;;;;;;;;;7.97;100.00;99387.44;5077835;28;889;-61
2023/04/18 02:23:45;;;;;;;;;;;;;;;7.98;100.00;99391.00;5077607;28;822;-62
2023/04/18 02:26:12;;;;;;;;;;;;;;;7.98;100.00;99391.78;5077853;28;850;-62
2023/04/18 02:28:39;;;;;;;;;;;;;;;7.98;100.00;99391.00;5077778;28;870;-62
2023/04/18 02:31:06;;;;;;;;;;;;;;;7.98;100.00;99394.53;5077658;28;882;-62
2023/04/18 02:33:33;;;;;;;;;;;;;;;8.00;100.00;99380.38;5077733;28;897;-61
2023/04/18 02:36:00;;;;;;;;;;;;;;;8.03;100.00;99385.09;5076373;28;1178;-61
2023/04/18 02:38:27;;;;;;;;;;;;;;;7.98;100.00;99383.53;5077723;28;876;-62
2023/04/18 02:40:54;;;;;;;;;;;;;;;7.95;100.00;99378.78;5077544;28;1882;-62
2023/04/18 02:43:21;;;;;;;;;;;;;;;7.85;100.00;99385.09;5077621;28;889;-62
2023/04/18 02:45:48;;;;;;;;;;;;;;;7.87;100.00;99382.75;5077573;28;810;-61
2023/04/18 02:48:15;;;;;;;;;;;;;;;7.86;100.00;99383.91;5077582;28;830;-62
2023/04/18 02:50:41;;;;;;;;;;;;;;;7.84;100.00;99385.50;5077797;28;857;-61
2023/04/18 02:53:09;;;;;;;;;;;;;;;7.82;100.00;99387.84;5076193;28;1170;-61
2023/04/18 02:55:36;;;;;;;;;;;;;;;7.80;100.00;99388.25;5077560;28;798;-61
2023/04/18 02:58:02;;;;;;;;;;;;;;;7.82;100.00;99394.13;5073735;28;856;-61
2023/04/18 03:00:29;;;;;;;;;;;;;;;7.82;100.00;99394.13;5074432;28;1890;-61
2023/04/18 03:02:56;;;;;;;;;;;;;;;7.76;100.00;99399.22;5074221;28;860;-62
2023/04/18 03:05:23;;;;;;;;;;;;;;;7.82;100.00;99391.38;5074278;28;825;-61
2023/04/18 03:07:50;;;;;;;;;;;;;;;7.80;100.00;99388.25;5074199;28;849;-62
2023/04/18 03:10:16;;;;;;;;;;;;;;;7.80;100.00;99390.22;5074209;28;1001;-61
2023/04/18 03:12:43;;;;;;;;;;;;;;;7.79;100.00;99392.19;5074271;28;869;-61
2023/04/18 03:15:10;;;;;;;;;;;;;;;7.73;100.00;99391.78;5074044;28;789;-61
2023/04/18 03:17:38;;;;;;;;;;;;;;;7.79;100.00;99394.94;5072662;28;1297;-61
2023/04/18 03:20:05;;;;;;;;;;;;;;;7.75;100.00;99394.94;5073849;28;1971;-62
2023/04/18 03:22:32;;;;;;;;;;;;;;;7.71;100.00;99398.84;5073838;28;821;-62
2023/04/18 03:24:59;;;;;;;;;;;;;;;7.74;100.00;99398.06;5073887;28;826;-61
2023/04/18 03:27:26;;;;;;;;;;;;;;;7.75;100.00;99394.94;5072459;28;1420;-61
2023/04/18 03:29:53;;;;;;;;;;;;;;;7.72;100.00;99400.41;5072478;28;1163;-61
2023/04/18 03:32:19;;;;;;;;;;;;;;;7.76;100.00;99396.47;5073743;28;806;-62
2023/04/18 03:34:46;;;;;;;;;;;;;;;7.77;100.00;99392.56;5073701;28;853;-61
2023/04/18 03:37:13;;;;;;;;;;;;;;;7.81;100.00;99394.53;5072377;28;1198;-61
2023/04/18 03:39:39;;;;;;;;;;;;;;;7.79;100.00;99403.19;5073514;28;1921;-62
2023/04/18 03:42:06;;;;;;;;;;;;;;;7.83;100.00;99403.16;5073477;28;846;-62
2023/04/18 03:44:33;;;;;;;;;;;;;;;7.84;100.00;99405.53;5073536;28;833;-61
2023/04/18 03:47:00;;;;;;;;;;;;;;;7.89;100.00;99410.63;5073435;28;873;-61
2023/04/18 03:49:27;;;;;;;;;;;;;;;7.94;100.00;99406.72;5073426;28;853;-61
2023/04/18 03:51:54;;;;;;;;;;;;;;;7.93;100.00;99408.66;5073243;28;830;-61
2023/04/18 03:54:20;;;;;;;;;;;;;;;7.96;100.00;99404.38;5073172;28;835;-61
2023/04/18 03:56:47;;;;;;;;;;;;;;;7.95;100.00;99411.03;5072056;28;1301;-60
2023/04/18 03:59:12;;;;;;;;;;;;;;;7.95;100.00;99414.56;5073083;28;1878;-61
2023/04/18 04:01:39;;;;;;;;;;;;;;;7.99;100.00;99420.06;5073234;28;858;-61
2023/04/18 04:04:07;;;;;;;;;;;;;;;8.01;100.00;99419.69;5073072;28;853;-61
2023/04/18 04:06:34;;;;;;;;;;;;;;;8.02;100.00;99419.28;5073115;28;794;-60
2023/04/18 04:09:01;;;;;;;;;;;;;;;8.02;100.00;99419.28;5072815;28;954;-61
2023/04/18 04:11:27;;;;;;;;;;;;;;;8.01;100.00;99417.72;5072754;28;1262;-61
2023/04/18 04:13:53;;;;;;;;;;;;;;;8.02;100.00;99427.53;5072911;28;802;-61
2023/04/18 04:16:20;;;;;;;;;;;;;;;8.05;100.00;99426.75;5073017;28;928;-61
2023/04/18 04:18:47;;;;;;;;;;;;;;;8.08;100.00;99425.19;5072930;28;1981;-61
2023/04/18 04:21:14;;;;;;;;;;;;;;;8.10;100.00;99436.59;5073039;28;803;-61
2023/04/18 04:23:41;;;;;;;;;;;;;;;8.13;100.00;99433.06;5071533;28;1162;-61
2023/04/18 04:26:08;;;;;;;;;;;;;;;8.20;100.00;99440.53;5072836;28;814;-61
2023/04/18 04:28:35;;;;;;;;;;;;;;;8.21;100.00;99439.31;5072790;28;877;-61
2023/04/18 04:31:02;;;;;;;;;;;;;;;8.15;100.00;99442.50;5072775;28;879;-62
2023/04/18 04:33:32;;;;;;;;;;;;;;;8.17;100.00;99453.09;5072685;28;1047;-60
2023/04/18 04:36:00;;;;;;;;;;;;;;;8.26;100.00;99450.72;5072518;28;826;-61
2023/04/18 04:38:29;;;;;;;;;;;;;;;8.24;100.00;99450.34;5072371;28;897;-61
2023/04/18 04:40:57;;;;;;;;;;;;;;;8.28;100.00;99453.88;5072232;28;1973;-61
2023/04/18 04:43:24;;;;;;;;;;;;;;;8.32;100.00;99456.59;5072246;28;802;-61
2023/04/18 04:45:51;;;;;;;;;;;;;;;8.33;100.00;99453.47;5072248;28;874;-61
2023/04/18 04:48:20;;;;;;;;;;;;;;;8.32;100.00;99453.84;5072195;28;875;-61
2023/04/18 04:50:52;;;;;;;;;;;;;;;8.35;100.00;99453.06;5072385;28;826;-61
2023/04/18 04:53:19;;;;;;;;;;;;;;;8.45;100.00;99466.06;5072102;28;853;-61
2023/04/18 04:55:45;;;;;;;;;;;;;;;8.45;100.00;99459.75;5070788;28;1281;-61
2023/04/18 04:58:12;;;;;;;;;;;;;;;8.42;100.00;99472.38;5072083;28;809;-61
2023/04/18 05:00:39;;;;;;;;;;;;;;;8.47;100.00;99468.41;5071937;28;1948;-61
2023/04/18 05:03:06;;;;;;;;;;;;;;;8.45;100.00;99466.06;5072207;28;802;-61
2023/04/18 05:05:33;;;;;;;;;;;;;;;8.32;100.00;99453.84;5071945;28;790;-61
2023/04/18 05:08:00;;;;;;;;;;;;;;;8.23;100.00;99453.47;5071855;28;830;-61
2023/04/18 05:10:28;;;;;;;;;;;;;;;8.28;100.00;99445.63;5071745;28;1080;-60
2023/04/18 05:12:54;;;;;;;;;;;;;;;8.32;100.00;99453.84;5071815;28;909;-61
2023/04/18 05:15:22;;;;;;;;;;;;;;;8.31;100.00;99453.06;5071811;28;790;-61
2023/04/18 05:17:48;;;;;;;;;;;;;;;8.42;100.00;99460.56;5071755;28;798;-60
2023/04/18 05:20:15;;;;;;;;;;;;;;;8.47;100.00;99454.66;5070902;28;1910;-60
2023/04/18 05:22:42;;;;;;;;;;;;;;;8.54;100.00;99469.19;5071790;28;798;-60
2023/04/18 05:25:09;;;;;;;;;;;;;;;8.52;100.00;99454.25;5071692;28;810;-61
2023/04/18 05:27:35;;;;;;;;;;;;;;;8.48;100.00;99454.25;5071586;28;968;-61
2023/04/18 05:30:02;;;;;;;;;;;;;;;8.70;100.00;99456.97;5071697;28;818;-61
2023/04/18 05:32:29;;;;;;;;;;;;;;;8.76;100.00;99456.16;5071535;28;845;-61
2023/04/18 05:34:56;;;;;;;;;;;;;;;8.78;100.00;99453.78;5071640;28;830;-61
2023/04/18 05:37:23;;;;;;;;;;;;;;;8.95;100.00;99465.16;5071674;28;802;-60
2023/04/18 05:39:49;;;;;;;;;;;;;;;9.09;100.00;99461.53;5071636;28;1947;-60
2023/04/18 05:42:16;;;;;;;;;;;;;;;9.06;100.00;99456.84;5070190;28;1158;-60
2023/04/18 05:44:43;;;;;;;;;;;;;;;8.92;100.00;99463.22;5071424;28;854;-61
2023/04/18 05:47:09;;;;;;;;;;;;;;;8.92;100.00;99460.44;5071437;28;790;-60
2023/04/18 05:49:36;;;;;;;;;;;;;;;8.98;100.00;99465.16;5071262;28;806;-60
2023/04/18 05:52:02;;;;;;;;;;;;;;;9.07;100.00;99459.19;5071414;28;861;-60
2023/04/18 05:54:29;;;;;;;;;;;;;;;9.15;100.00;99460.75;5071346;28;814;-61
2023/04/18 05:56:57;;;;;;;;;;;;;;;9.25;100.00;99472.91;5071343;28;850;-61
2023/04/18 05:59:25;;;;;;;;;;;;;;;9.29;100.00;99472.88;5071287;28;1943;-61
2023/04/18 06:01:52;;;;;;;;;;;;;;;9.25;100.00;99474.88;5071333;28;826;-61
2023/04/18 06:04:19;;;;;;;;;;;;;;;9.23;100.00;99475.25;5071234;28;920;-61
2023/04/18 06:06:46;;;;;;;;;;;;;;;9.32;100.00;99466.56;5071488;28;814;-60
2023/04/18 06:09:13;;;;;;;;;;;;;;;9.34;100.00;99469.69;5071454;28;921;-60
2023/04/18 06:11:39;;;;;;;;;;;;;;;9.29;100.00;99467.38;5071018;28;1469;-60
2023/04/18 06:14:06;;;;;;;;;;;;;;;9.30;100.00;99468.94;5071194;28;811;-60
2023/04/18 06:16:35;;;;;;;;;;;;;;;9.36;100.00;99467.31;5071197;28;873;-61
2023/04/18 06:19:02;;;;;;;;;;;;;;;9.41;100.00;99472.44;5071009;28;1975;-60
2023/04/18 06:21:28;;;;;;;;;;;;;;;9.41;100.00;99469.69;5071047;28;841;-61
2023/04/18 06:23:55;;;;;;;;;;;;;;;9.49;100.00;99473.94;5071148;28;874;-60
2023/04/18 06:26:22;;;;;;;;;;;;;;;9.70;100.00;99472.25;5071044;28;826;-60
2023/04/18 06:28:49;;;;;;;;;;;;;;;9.84;100.00;99466.63;5071041;28;874;-60
2023/04/18 06:31:15;;;;;;;;;;;;;;;10.22;100.00;99473.03;5071433;28;842;-60
2023/04/18 06:33:41;;;;;;;;;;;;;;;10.55;100.00;99467.22;5075064;28;861;-60
2023/04/18 06:36:08;;;;;;;;;;;;;;;10.52;100.00;99473.56;5074781;28;810;-60
2023/04/18 06:38:36;;;;;;;;;;;;;;;10.49;100.00;99477.16;5074692;28;869;-60
2023/04/18 06:41:03;;;;;;;;;;;;;;;10.66;100.00;99469.88;5074608;28;1948;-60
2023/04/18 06:43:30;;;;;;;;;;;;;;;11.01;100.00;99468.72;5074659;28;801;-60
2023/04/18 06:45:57;;;;;;;;;;;;;;;11.11;100.00;99455.94;5073312;28;1345;-60
2023/04/18 06:48:24;;;;;;;;;;;;;;;11.11;100.00;99467.78;5074415;28;882;-60
2023/04/18 06:50:51;;;;;;;;;;;;;;;10.85;100.00;99468.50;5074562;28;884;-60
2023/04/18 06:53:17;;;;;;;;;;;;;;;10.92;100.00;99463.66;5074427;28;846;-60
2023/04/18 06:55:43;;;;;;;;;;;;;;;11.36;100.00;99461.91;5074362;28;860;-59
2023/04/18 06:58:12;;;;;;;;;;;;;;;11.75;100.00;99476.41;5074368;28;853;-60
2023/04/18 07:00:39;;;;;;;;;;;;;;;11.73;100.00;99476.81;5074202;28;1950;-59
2023/04/18 07:03:08;;;;;;;;;;;;;;;11.87;100.00;99463.97;5074541;28;794;-59
2023/04/18 07:05:36;;;;;;;;;;;;;;;11.91;100.00;99470.28;5072905;28;1198;-59
2023/04/18 07:08:03;;;;;;;;;;;;;;;11.88;100.00;99473.84;5072856;28;1198;-60
2023/04/18 07:10:29;;;;;;;;;;;;;;;11.83;100.00;99469.56;5074017;28;1218;-59
2023/04/18 07:12:55;;;;;;;;;;;;;;;11.60;100.00;99471.06;5074133;28;857;-59
2023/04/18 07:15:22;;;;;;;;;;;;;;;12.23;100.00;99478.06;5074098;28;815;-60
2023/04/18 07:17:49;;;;;;;;;;;;;;;13.46;100.00;99468.97;5073918;28;848;-59
2023/04/18 07:20:16;;;;;;;;;;;;;;;14.44;100.00;99460.66;5073999;28;1909;-59
2023/04/18 07:22:43;;;;;;;;;;;;;;;14.19;100.00;99474.41;5074080;28;798;-59
2023/04/18 07:25:10;;;;;;;;;;;;;;;13.55;100.00;99482.25;5073852;28;881;-59
2023/04/18 07:27:36;;;;;;;;;;;;;;;13.47;100.00;99474.09;5073786;28;814;-59
2023/04/18 07:30:03;;;;;;;;;;;;;;;13.62;100.00;99480.09;5074159;28;861;-59
2023/04/18 07:32:30;;;;;;;;;;;;;;;13.58;100.00;99479.41;5072353;28;882;-59
2023/04/18 07:34:57;;;;;;;;;;;;;;;13.83;100.00;99475.28;5073715;28;807;-59
2023/04/18 07:37:24;;;;;;;;;;;;;;;14.30;100.00;99489.63;5073612;28;896;-59
2023/04/18 07:39:51;;;;;;;;;;;;;;;13.85;100.00;99495.09;5073515;28;1882;-59
2023/04/18 07:42:17;;;;;;;;;;;;;;;13.58;100.00;99509.94;5073831;28;854;-58
2023/04/18 07:44:44;;;;;;;;;;;;;;;13.76;100.00;99503.22;5072791;28;870;-59
2023/04/18 07:47:11;;;;;;;;;;;;;;;14.98;100.00;99497.41;5073410;28;839;-59
2023/04/18 07:49:38;;;;;;;;;;;;;;;14.50;100.00;99522.09;5073527;28;857;-58
2023/04/18 07:52:04;;;;;;;;;;;;;;;13.51;100.00;99523.22;5073627;28;870;-59
2023/04/18 07:54:31;;;;;;;;;;;;;;;12.81;100.00;99530.50;5072051;28;812;-59
2023/04/18 07:56:58;;;;;;;;;;;;;;;12.34;100.00;99533.28;5073221;28;893;-59
2023/04/18 07:59:26;;;;;;;;;;;;;;;11.95;100.00;99527.16;5073094;28;1945;-59
2023/04/18 08:01:52;;;;;;;;;;;;;;;11.84;100.00;99520.94;5073133;28;884;-59
2023/04/18 08:04:19;;;;;;;;;;;;;;;11.84;100.00;99526.50;5073097;28;861;-59
2023/04/18 08:06:46;;;;;;;;;;;;;;;11.93;100.00;99518.50;5073096;28;818;-59
2023/04/18 08:09:13;;;;;;;;;;;;;;;12.64;100.00;99518.53;5073175;28;987;-59
2023/04/18 08:11:40;;;;;;;;;;;;;;;12.29;100.00;99525.44;5072791;28;1302;-59
2023/04/18 08:14:06;;;;;;;;;;;;;;;11.71;100.00;99519.97;5072934;28;810;-59
2023/04/18 08:16:33;;;;;;;;;;;;;;;11.76;100.00;99523.06;5072689;28;857;-59
2023/04/18 08:18:59;;;;;;;;;;;;;;;12.03;100.00;99527.81;5072796;28;2009;-59
2023/04/18 08:21:26;;;;;;;;;;;;;;;12.17;100.00;99522.06;5072798;28;877;-59
2023/04/18 08:23:53;;;;;;;;;;;;;;;12.29;100.00;99520.72;5072680;28;865;-59
2023/04/18 08:26:20;;;;;;;;;;;;;;;12.39;100.00;99525.28;5072730;28;775;-59
2023/04/18 08:28:47;;;;;;;;;;;;;;;12.42;100.00;99523.66;5072582;28;818;-59
2023/04/18 08:31:13;;;;;;;;;;;;;;;12.45;100.00;99520.81;5072558;28;867;-59
2023/04/18 08:33:40;;;;;;;;;;;;;;;12.49;100.00;99514.44;5072525;28;841;-59
2023/04/18 08:36:07;;;;;;;;;;;;;;;12.41;100.00;99516.53;5072523;28;837;-59
2023/04/18 08:38:34;;;;;;;;;;;;;;;12.23;100.00;99516.84;5072394;28;873;-59
2023/04/18 08:41:01;;;;;;;;;;;;;;;12.03;100.00;99517.56;5072326;28;1952;-59
2023/04/18 08:43:30;;;;;;;;;;;;;;;12.13;100.00;99517.78;5072324;28;842;-59
2023/04/18 08:46:00;;;;;;;;;;;;;;;11.61;100.00;99535.53;5070826;28;1404;-59
2023/04/18 08:48:27;;;;;;;;;;;;;;;11.40;100.00;99520.78;5072272;28;817;-59
2023/04/18 08:50:56;;;;;;;;;;;;;;;11.47;100.00;99525.41;5072153;28;798;-59
2023/04/18 08:53:22;;;;;;;;;;;;;;;11.82;100.00;99521.41;5072180;28;864;-59
2023/04/18 08:55:59;;;;;;;;;;;;;;;12.39;100.00;99530.81;5071351;28;790;-59
2023/04/18 08:58:26;;;;;;;;;;;;;;;12.56;100.00;99530.94;5072552;28;862;-59
2023/04/18 09:00:54;;;;;;;;;;;;;;;12.42;100.00;99529.22;5070781;28;1882;-59
2023/04/18 09:03:36;;;;;;;;;;;;;;;12.55;100.00;99549.56;5072020;28;814;-59
2023/04/18 09:06:07;;;;;;;;;;;;;;;12.45;100.00;99534.66;5071935;28;864;-59
2023/04/18 09:08:34;;;;;;;;;;;;;;;12.34;100.00;99538.84;5072171;28;945;-59
2023/04/18 09:11:24;;;;;;;;;;;;;;;12.24;100.00;99549.66;5071895;28;1224;-59
2023/04/18 09:13:52;;;;;;;;;;;;;;;12.30;100.00;99541.66;5071874;28;917;-59
2023/04/18 09:16:21;;;;;;;;;;;;;;;12.14;100.00;99538.75;5071986;28;865;-59
2023/04/18 09:19:07;;;;;;;;;;;;;;;12.00;100.00;99548.06;5071765;28;798;-58
2023/04/18 09:21:34;;;;;;;;;;;;;;;12.09;100.00;99548.31;5071781;28;916;-59
2023/04/18 09:24:16;;;;;;;;;;;;;;;12.43;100.00;99548.16;5071746;28;899;-59
2023/04/18 09:26:43;;;;;;;;;;;;;;;12.68;100.00;99540.66;5071684;28;802;-59
2023/04/18 09:29:09;;;;;;;;;;;;;;;12.62;100.00;99534.78;5071670;28;886;-58
2023/04/18 09:31:51;;;;;;;;;;;;;;;12.54;100.00;99541.66;5070337;28;819;-58
2023/04/18 09:34:23;;;;;;;;;;;;;;;12.53;100.00;99537.34;5071617;28;802;-58
2023/04/18 09:37:09;;;;;;;;;;;;;;;12.77;100.00;99538.88;5071569;28;806;-58
2023/04/18 10:10:57;;;;;;;;;;;;;;;11.26;100.00;99584.56;4992906;28;1319;-58
2023/04/18 10:13:23;;;;;;;;;;;;;;;11.19;100.00;99577.13;4996054;28;803;-58
2023/04/18 10:15:51;;;;;;;;;;;;;;;11.32;100.00;99568.31;4995936;28;915;-58
2023/04/18 10:18:21;;;;;;;;;;;;;;;11.41;100.00;99569.41;4978185;28;908;-58
2023/04/18 10:20:47;;;;;;;;;;;;;;;11.43;100.00;99563.41;4995691;28;1907;-58
2023/04/18 10:23:33;;;;;;;;;;;;;;;11.65;100.00;99544.56;4996035;28;886;-58
2023/04/18 10:25:59;;;;;;;;;;;;;;;12.84;100.00;99524.09;4995692;28;885;-58
2023/04/18 10:28:26;;;;;;;;;;;;;;;13.13;100.00;99516.00;4995742;28;834;-58
2023/04/18 10:30:52;;;;;;;;;;;;;;;13.21;100.00;99519.44;4995617;28;937;-58
2023/04/18 10:33:37;;;;;;;;;;;;;;;13.69;100.00;99513.25;4995986;28;862;-58
2023/04/18 10:36:05;;;;;;;;;;;;;;;13.93;100.00;99490.91;4995392;28;899;-58
2023/04/18 10:38:43;;;;;;;;;;;;;;;13.54;100.00;99475.94;4995343;28;964;-58
2023/04/18 10:41:15;;;;;;;;;;;;;;;13.03;100.00;99448.41;4995241;28;1964;-58
2023/04/18 10:43:59;;;;;;;;;;;;;;;12.60;100.00;99440.94;4995305;28;945;-58
2023/04/18 10:46:25;;;;;;;;;;;;;;;12.20;100.00;99446.41;4995292;28;838;-57
2023/04/18 10:49:11;;;;;;;;;;;;;;;12.18;100.00;99425.88;4995225;28;1030;-59
2023/04/18 10:51:36;;;;;;;;;;;;;;;12.19;100.00;99425.47;4994880;28;1172;-60
2023/04/18 10:54:06;;;;;;;;;;;;;;;12.34;100.00;99417.69;4995192;28;811;-59
2023/04/18 10:56:33;;;;;;;;;;;;;;;12.66;100.00;99436.47;4995134;28;884;-59
2023/04/18 10:59:00;;;;;;;;;;;;;;;13.23;100.00;99417.13;4995067;28;1894;-60
2023/04/18 11:01:29;;;;;;;;;;;;;;;13.40;100.00;99418.75;4995106;28;906;-60
2023/04/18 11:03:56;;;;;;;;;;;;;;;13.02;100.00;99421.13;4994927;28;866;-57
2023/04/18 11:06:25;;;;;;;;;;;;;;;12.74;100.00;99430.78;4994904;28;876;-57
2023/04/18 11:09:08;;;;;;;;;;;;;;;12.25;100.00;99436.84;4994872;28;1047;-58
2023/04/18 11:11:36;;;;;;;;;;;;;;;11.77;100.00;99435.22;4977161;28;2193;-59
2023/04/18 11:14:03;;;;;;;;;;;;;;;11.45;100.00;99436.50;4977338;28;1779;-56
2023/04/18 11:16:31;;;;;;;;;;;;;;;11.42;100.00;99434.56;4977484;28;811;-58
2023/04/18 11:18:59;;;;;;;;;;;;;;;11.35;100.00;99440.19;4993395;28;1081;-58
2023/04/18 11:21:30;;;;;;;;;;;;;;;11.33;100.00;99437.06;4994849;28;918;-58
2023/04/18 11:23:57;;;;;;;;;;;;;;;11.41;100.00;99455.13;4994933;28;850;-58
2023/04/18 11:26:27;;;;;;;;;;;;;;;11.40;100.00;99448.81;4994471;28;854;-58
2023/04/18 11:28:57;;;;;;;;;;;;;;;11.52;100.00;99452.22;4994612;28;854;-58
2023/04/18 11:31:24;;;;;;;;;;;;;;;11.65;100.00;99444.91;4994802;28;885;-58
2023/04/18 11:33:51;;;;;;;;;;;;;;;11.76;100.00;99453.84;4994706;28;866;-58
2023/04/18 11:36:18;;;;;;;;;;;;;;;11.82;100.00;99451.34;4994438;28;895;-58
2023/04/18 11:41:54;;;;;;;;;;;;;;;12.56;100.00;99450.53;4994397;28;625;-58
2023/04/18 11:44:24;;;;;;;;;;;;;;;13.00;100.00;99445.75;4994267;28;883;-58
2023/04/18 11:46:51;;;;;;;;;;;;;;;13.47;100.00;99440.00;4994111;28;895;-57
2023/04/18 11:49:28;;;;;;;;;;;;;;;13.92;100.00;99430.22;4994043;28;1333;-58
2023/04/18 11:51:55;;;;;;;;;;;;;;;14.07;100.00;99431.44;4994011;28;965;-57
2023/04/18 11:54:40;;;;;;;;;;;;;;;14.46;100.00;99435.19;4994035;28;792;-56
2023/04/18 11:57:27;;;;;;;;;;;;;;;14.48;100.00;99416.06;4994124;28;866;-58
2023/04/18 11:59:55;;;;;;;;;;;;;;;14.27;100.00;99415.44;4993869;28;1878;-58
2023/04/18 12:02:24;;;;;;;;;;;;;;;14.12;100.00;99413.44;4993937;28;936;-57
2023/04/18 12:04:52;;;;;;;;;;;;;;;14.03;100.00;99411.28;4993935;28;869;-58
2023/04/18 12:07:32;;;;;;;;;;;;;;;14.24;100.00;99398.84;4993595;28;863;-57
2023/04/18 12:09:58;;;;;;;;;;;;;;;14.89;100.00;99390.31;4993826;28;1265;-58
2023/04/18 12:12:25;;;;;;;;;;;;;;;15.39;100.00;99378.91;4993887;28;889;-57
2023/04/18 12:15:04;;;;;;;;;;;;;;;15.30;100.00;99369.22;4993666;28;855;-58
2023/04/18 12:17:31;;;;;;;;;;;;;;;14.16;100.00;99350.22;4993873;28;943;-58
2023/04/18 12:20:00;;;;;;;;;;;;;;;13.53;100.00;99362.50;4993363;28;1938;-58
2023/04/18 12:22:40;;;;;;;;;;;;;;;13.92;100.00;99353.22;4993401;28;941;-58
2023/04/18 12:25:12;;;;;;;;;;;;;;;14.47;100.00;99348.56;4993674;28;854;-59
2023/04/18 12:27:53;;;;;;;;;;;;;;;14.64;100.00;99340.19;4993340;28;894;-58
2023/04/18 12:30:21;;;;;;;;;;;;;;;14.70;100.00;99343.97;4993103;28;855;-58
2023/04/18 12:32:49;;;;;;;;;;;;;;;14.90;100.00;99349.38;4993452;28;834;-59
2023/04/18 12:35:18;;;;;;;;;;;;;;;14.76;100.00;99341.44;4993382;28;810;-57
2023/04/18 12:37:46;;;;;;;;;;;;;;;14.53;100.00;99334.91;4993242;28;894;-58
2023/04/18 12:40:12;;;;;;;;;;;;;;;14.26;100.00;99326.94;4993125;28;1882;-59
2023/04/18 12:42:40;;;;;;;;;;;;;;;14.20;100.00;99332.22;4993097;28;911;-57
2023/04/18 12:45:08;;;;;;;;;;;;;;;14.11;100.00;99318.19;4992868;28;836;-59
2023/04/18 12:47:36;;;;;;;;;;;;;;;14.21;100.00;99330.22;4992944;28;957;-58
2023/04/18 12:50:03;;;;;;;;;;;;;;;14.35;100.00;99329.84;4992906;28;867;-57
2023/04/18 12:52:30;;;;;;;;;;;;;;;14.38;100.00;99317.84;4992962;28;803;-59
2023/04/18 12:54:57;;;;;;;;;;;;;;;14.33;100.00;99320.38;4975529;28;828;-58
2023/04/18 12:57:24;;;;;;;;;;;;;;;14.42;100.00;99328.84;4992833;28;831;-58
2023/04/18 12:59:51;;;;;;;;;;;;;;;14.70;100.00;99322.53;4992795;28;1882;-59
2023/04/18 13:02:18;;;;;;;;;;;;;;;15.08;100.00;99323.75;4975384;28;1272;-58
2023/04/18 13:04:44;;;;;;;;;;;;;;;15.92;100.00;99321.47;4992664;28;843;-58
2023/04/18 13:07:10;;;;;;;;;;;;;;;16.45;100.00;99312.44;4975176;28;871;-58
2023/04/18 13:09:38;;;;;;;;;;;;;;;16.60;100.00;99315.47;4992662;28;1198;-59
2023/04/18 13:12:04;;;;;;;;;;;;;;;16.51;100.00;99307.81;4992572;28;827;-58
2023/04/18 13:14:31;;;;;;;;;;;;;;;16.65;100.00;99302.94;4992603;28;827;-59
2023/04/18 13:16:58;;;;;;;;;;;;;;;16.87;100.00;99306.47;4992642;28;846;-59
2023/04/18 13:19:25;;;;;;;;;;;;;;;17.63;100.00;99304.25;4992387;28;1910;-59
2023/04/18 13:21:52;;;;;;;;;;;;;;;18.47;100.00;99308.63;4992483;28;855;-59
2023/04/18 13:24:19;;;;;;;;;;;;;;;18.65;100.00;99319.03;4992683;28;830;-59
2023/04/18 13:26:46;;;;;;;;;;;;;;;18.90;100.00;99319.91;4992377;28;844;-59
2023/04/18 13:29:12;;;;;;;;;;;;;;;18.46;100.00;99323.13;4992239;28;927;-59
2023/04/18 13:31:38;;;;;;;;;;;;;;;18.16;100.00;99329.19;4992427;28;878;-59
2023/04/18 13:34:05;;;;;;;;;;;;;;;18.03;100.00;99334.16;4992354;28;867;-59
2023/04/18 13:36:33;;;;;;;;;;;;;;;18.21;100.00;99327.00;4992094;28;973;-59
2023/04/18 13:39:00;;;;;;;;;;;;;;;18.04;100.00;99315.34;4992547;28;917;-59